createdAt,value
2022-11-17T00:01:33.191Z,7.57
2022-11-17T00:04:01.145Z,7.58
2022-11-17T00:06:29.055Z,7.62
2022-11-17T00:08:57.095Z,7.57
2022-11-17T00:11:24.936Z,7.58
2022-11-17T00:14:11.327Z,7.57
2022-11-17T00:16:38.881Z,7.59
2022-11-17T00:19:29.636Z,7.62
2022-11-17T00:21:57.401Z,7.58
2022-11-17T00:24:25.532Z,7.57
2022-11-17T00:27:02.354Z,7.57
2022-11-17T00:31:06.576Z,7.63
2022-11-17T00:33:52.992Z,7.68
2022-11-17T00:36:25.659Z,7.77
2022-11-17T00:38:53.203Z,7.80
2022-11-17T00:41:22.631Z,7.79
2022-11-17T00:43:50.715Z,7.86
2022-11-17T00:46:18.244Z,7.85
2022-11-17T00:48:45.736Z,7.85
2022-11-17T00:51:14.246Z,7.86
2022-11-17T00:53:42.215Z,7.84
2022-11-17T00:56:16.029Z,7.85
2022-11-17T00:58:44.337Z,7.87
2022-11-17T01:01:12.458Z,7.85
2022-11-17T01:03:40.678Z,7.90
2022-11-17T01:06:15.557Z,8.02
2022-11-17T01:08:44.220Z,8.03
2022-11-17T01:11:14.891Z,8.09
2022-11-17T01:13:43.701Z,8.07
2022-11-17T01:16:14.035Z,8.06
2022-11-17T01:18:42.209Z,8.10
2022-11-17T01:21:15.766Z,8.10
2022-11-17T01:23:46.193Z,8.11
2022-11-17T01:26:20.206Z,8.12
2022-11-17T01:28:48.532Z,8.17
2022-11-17T01:31:23.064Z,8.18
2022-11-17T01:33:51.283Z,8.17
2022-11-17T01:36:22.590Z,8.18
2022-11-17T01:38:50.571Z,8.26
2022-11-17T01:41:19.707Z,8.38
2022-11-17T01:43:58.961Z,8.38
2022-11-17T01:46:29.468Z,8.47
2022-11-17T01:49:10.928Z,8.55
2022-11-17T01:51:47.191Z,8.45
2022-11-17T01:54:20.181Z,8.52
2022-11-17T01:56:55.306Z,8.54
2022-11-17T01:59:30.012Z,8.52
2022-11-17T02:01:58.693Z,8.43
2022-11-17T02:04:37.553Z,8.44
2022-11-17T02:07:20.044Z,8.39
2022-11-17T02:09:48.817Z,8.29
2022-11-17T02:12:16.834Z,8.31
2022-11-17T02:14:45.045Z,8.28
2022-11-17T02:17:14.481Z,8.27
2022-11-17T02:19:45.550Z,8.37
2022-11-17T02:22:31.994Z,8.33
2022-11-17T02:25:26.845Z,8.34
2022-11-17T02:28:18.622Z,8.34
2022-11-17T02:31:14.475Z,8.33
2022-11-17T02:33:44.834Z,8.36
2022-11-17T02:36:33.541Z,8.35
2022-11-17T02:39:10.190Z,8.27
2022-11-17T02:41:49.895Z,8.28
2022-11-17T02:44:41.475Z,8.39
2022-11-17T02:47:20.386Z,8.28
2022-11-17T02:50:10.823Z,8.18
2022-11-17T02:52:38.870Z,8.18
2022-11-17T02:55:09.811Z,8.17
2022-11-17T02:57:40.079Z,8.19
2022-11-17T03:00:10.702Z,8.20
2022-11-17T03:02:57.907Z,8.22
2022-11-17T03:06:11.264Z,8.23
2022-11-17T03:08:40.628Z,8.29
2022-11-17T03:11:10.351Z,8.35
2022-11-17T03:13:49.401Z,8.34
2022-11-17T03:16:25.223Z,8.31
2022-11-17T03:19:01.512Z,8.31
2022-11-17T03:21:34.973Z,8.31
2022-11-17T03:24:05.149Z,8.34
2022-11-17T03:26:36.435Z,8.42
2022-11-17T03:29:09.275Z,8.46
2022-11-17T03:31:38.558Z,8.52
2022-11-17T03:34:12.289Z,8.50
2022-11-17T03:36:45.734Z,8.53
2022-11-17T03:39:23.959Z,8.52
2022-11-17T03:42:00.056Z,8.55
2022-11-17T03:44:30.578Z,8.61
2022-11-17T03:46:59.980Z,8.63
2022-11-17T03:49:43.465Z,8.59
2022-11-17T03:52:11.801Z,8.64
2022-11-17T03:54:40.898Z,8.72
2022-11-17T03:57:21.728Z,8.73
2022-11-17T04:00:01.322Z,8.69
2022-11-17T04:02:31.871Z,8.68
2022-11-17T04:05:05.750Z,8.77
2022-11-17T04:07:34.672Z,8.78
2022-11-17T04:10:03.682Z,8.72
2022-11-17T04:12:50.944Z,8.72
2022-11-17T04:15:37.112Z,8.69
2022-11-17T04:18:04.776Z,8.65
2022-11-17T04:20:38.935Z,8.66
2022-11-17T04:23:12.198Z,8.67
2022-11-17T04:26:13.166Z,8.72
2022-11-17T04:28:47.120Z,8.69
2022-11-17T04:31:15.773Z,8.66
2022-11-17T04:33:45.574Z,8.59
2022-11-17T04:36:16.532Z,8.60
2022-11-17T04:38:46.510Z,8.58
2022-11-17T04:41:35.270Z,8.58
2022-11-17T04:44:04.750Z,8.57
2022-11-17T04:46:34.702Z,8.56
2022-11-17T04:49:03.795Z,8.60
2022-11-17T04:51:32.749Z,8.63
2022-11-17T04:54:01.259Z,8.63
2022-11-17T04:56:31.206Z,8.62
2022-11-17T04:58:58.811Z,8.66
2022-11-17T05:01:28.004Z,8.61
2022-11-17T05:04:01.185Z,8.58
2022-11-17T05:06:35.053Z,8.58
2022-11-17T05:09:06.779Z,8.64
2022-11-17T05:11:52.995Z,8.60
2022-11-17T05:14:24.428Z,8.57
2022-11-17T05:17:10.868Z,8.60
2022-11-17T05:19:47.981Z,8.60
2022-11-17T05:22:36.931Z,8.68
2022-11-17T05:25:05.814Z,8.62
2022-11-17T05:27:34.524Z,8.73
2022-11-17T05:30:03.805Z,8.58
2022-11-17T05:32:31.566Z,8.60
2022-11-17T05:34:59.191Z,8.71
2022-11-17T05:37:26.735Z,8.62
2022-11-17T05:39:54.901Z,8.65
2022-11-17T05:42:22.459Z,8.62
2022-11-17T05:44:50.181Z,8.54
2022-11-17T05:47:17.734Z,8.60
2022-11-17T05:49:46.308Z,8.64
2022-11-17T05:52:13.969Z,8.60
2022-11-17T05:54:41.606Z,8.64
2022-11-17T05:57:16.464Z,8.69
2022-11-17T05:59:54.567Z,8.68
2022-11-17T06:02:31.348Z,8.68
2022-11-17T06:04:59.123Z,8.67
2022-11-17T06:07:27.386Z,8.64
2022-11-17T06:09:56.695Z,8.59
2022-11-17T06:12:24.375Z,8.56
2022-11-17T06:14:52.162Z,8.57
2022-11-17T06:17:25.893Z,8.55
2022-11-17T06:20:03.243Z,8.56
2022-11-17T06:22:31.971Z,8.48
2022-11-17T06:25:01.935Z,8.42
2022-11-17T06:27:32.141Z,8.38
2022-11-17T06:30:03.790Z,8.44
2022-11-17T06:32:35.138Z,8.39
2022-11-17T06:35:06.374Z,8.39
2022-11-17T06:37:34.309Z,8.40
2022-11-17T06:40:01.942Z,8.40
2022-11-17T06:42:48.527Z,8.40
2022-11-17T06:45:16.451Z,8.33
2022-11-17T06:47:44.112Z,8.36
2022-11-17T06:50:12.194Z,8.38
2022-11-17T06:52:39.840Z,8.44
2022-11-17T06:55:08.712Z,8.51
2022-11-17T06:57:36.265Z,8.55
2022-11-17T07:00:06.346Z,8.46
2022-11-17T07:02:34.451Z,8.39
2022-11-17T07:05:02.008Z,8.43
2022-11-17T07:07:29.922Z,8.43
2022-11-17T07:10:03.333Z,8.49
2022-11-17T07:12:31.087Z,8.52
2022-11-17T07:14:58.716Z,8.48
2022-11-17T07:17:29.138Z,8.46
2022-11-17T07:19:57.004Z,8.49
2022-11-17T07:22:24.743Z,8.48
2022-11-17T07:24:52.390Z,8.48
2022-11-17T07:27:22.523Z,8.56
2022-11-17T07:29:51.117Z,8.53
2022-11-17T07:32:19.953Z,8.50
2022-11-17T07:34:47.722Z,8.53
2022-11-17T07:37:15.349Z,8.48
2022-11-17T07:39:43.281Z,8.51
2022-11-17T07:42:11.797Z,8.47
2022-11-17T07:44:39.366Z,8.53
2022-11-17T07:47:10.018Z,8.48
2022-11-17T07:49:38.638Z,8.53
2022-11-17T07:52:07.231Z,8.64
2022-11-17T07:54:36.089Z,8.62
2022-11-17T07:57:04.404Z,8.63
2022-11-17T07:59:32.206Z,8.62
2022-11-17T08:01:59.989Z,8.62
2022-11-17T08:04:27.490Z,8.70
2022-11-17T08:06:55.878Z,8.63
2022-11-17T08:09:23.474Z,8.66
2022-11-17T08:11:51.915Z,8.58
2022-11-17T08:14:19.545Z,8.49
2022-11-17T08:16:47.154Z,8.44
2022-11-17T08:19:15.474Z,8.50
2022-11-17T08:21:43.621Z,8.54
2022-11-17T08:24:12.692Z,8.54
2022-11-17T08:26:42.257Z,8.50
2022-11-17T08:29:10.116Z,8.45
2022-11-17T08:31:38.926Z,8.40
2022-11-17T08:34:06.522Z,8.38
2022-11-17T08:36:34.502Z,8.45
2022-11-17T08:39:02.626Z,8.41
2022-11-17T08:41:30.391Z,8.40
2022-11-17T08:44:01.316Z,8.42
2022-11-17T08:46:29.388Z,8.44
2022-11-17T08:48:58.228Z,8.38
2022-11-17T08:51:27.238Z,8.34
2022-11-17T08:53:55.980Z,8.35
2022-11-17T08:56:23.608Z,8.31
2022-11-17T08:58:51.726Z,8.29
2022-11-17T09:01:20.041Z,8.23
2022-11-17T09:03:47.976Z,8.25
2022-11-17T09:06:17.414Z,8.17
2022-11-17T09:08:46.943Z,8.18
2022-11-17T09:11:16.646Z,8.15
2022-11-17T09:13:45.919Z,8.10
2022-11-17T09:16:14.850Z,8.16
2022-11-17T09:18:42.551Z,8.18
2022-11-17T09:21:13.698Z,8.18
2022-11-17T09:23:41.965Z,8.12
2022-11-17T09:26:12.553Z,8.17
2022-11-17T09:28:40.960Z,8.13
2022-11-17T09:31:13.837Z,8.07
2022-11-17T09:33:42.784Z,8.12
2022-11-17T09:36:11.982Z,8.09
2022-11-17T09:38:40.678Z,8.05
2022-11-17T09:41:11.652Z,7.97
2022-11-17T09:43:46.312Z,7.95
2022-11-17T09:46:19.738Z,7.89
2022-11-17T09:49:08.268Z,7.84
2022-11-17T09:51:40.202Z,7.85
2022-11-17T09:54:20.482Z,7.91
2022-11-17T09:56:49.115Z,7.94
2022-11-17T09:59:19.703Z,7.80
2022-11-17T10:01:47.353Z,7.70
2022-11-17T10:04:17.026Z,7.84
2022-11-17T10:06:48.515Z,7.78
2022-11-17T10:09:28.459Z,7.78
2022-11-17T10:12:13.317Z,7.70
2022-11-17T10:14:42.708Z,7.62
2022-11-17T10:17:13.680Z,7.67
2022-11-17T10:19:42.355Z,7.67
2022-11-17T10:22:39.321Z,7.78
2022-11-17T10:25:21.757Z,7.80
2022-11-17T10:27:54.073Z,7.62
2022-11-17T10:30:24.808Z,7.71
2022-11-17T10:32:55.501Z,7.78
2022-11-17T10:35:30.737Z,7.73
2022-11-17T10:38:08.611Z,7.67
2022-11-17T10:40:39.295Z,7.59
2022-11-17T10:43:22.756Z,7.55
2022-11-17T10:45:55.285Z,7.63
2022-11-17T10:48:25.773Z,7.65
2022-11-17T10:50:57.627Z,7.47
2022-11-17T10:53:29.203Z,7.36
2022-11-17T10:56:04.672Z,7.31
2022-11-17T10:58:50.626Z,7.20
2022-11-17T11:01:29.260Z,7.16
2022-11-17T11:03:56.924Z,7.22
2022-11-17T11:06:27.910Z,7.27
2022-11-17T11:09:01.711Z,7.36
2022-11-17T11:11:42.522Z,7.30
2022-11-17T11:14:22.592Z,7.39
2022-11-17T11:16:51.068Z,7.30
2022-11-17T11:19:20.654Z,7.32
2022-11-17T11:22:32.667Z,7.31
2022-11-17T11:25:41.615Z,7.19
2022-11-17T11:28:49.067Z,7.18
2022-11-17T11:31:22.977Z,7.04
2022-11-17T11:33:53.517Z,7.08
2022-11-17T11:36:40.573Z,6.91
2022-11-17T11:39:32.071Z,6.96
2022-11-17T11:42:15.188Z,7.02
2022-11-17T11:45:03.573Z,6.86
2022-11-17T11:48:09.174Z,6.66
2022-11-17T11:50:44.012Z,6.66
2022-11-17T11:53:18.876Z,6.57
2022-11-17T11:55:50.531Z,6.61
2022-11-17T11:58:22.683Z,6.69
2022-11-17T12:01:03.907Z,6.63
2022-11-17T12:04:10.523Z,6.56
2022-11-17T12:06:40.857Z,6.52
2022-11-17T12:09:26.763Z,6.33
2022-11-17T12:12:01.302Z,6.52
2022-11-17T12:14:33.854Z,6.51
2022-11-17T12:17:04.109Z,6.56
2022-11-17T12:19:44.344Z,6.42
2022-11-17T12:22:24.569Z,6.50
2022-11-17T12:24:57.992Z,6.39
2022-11-17T12:27:42.710Z,6.35
2022-11-17T12:30:29.005Z,6.39
2022-11-17T12:32:58.360Z,6.41
2022-11-17T12:35:26.620Z,6.39
2022-11-17T12:38:23.383Z,6.34
2022-11-17T12:40:52.420Z,6.29
2022-11-17T12:43:25.551Z,6.30
2022-11-17T12:45:58.650Z,6.18
2022-11-17T12:48:36.004Z,6.21
2022-11-17T12:51:10.332Z,6.03
2022-11-17T12:53:47.155Z,6.05
2022-11-17T12:56:24.139Z,6.08
2022-11-17T12:58:58.155Z,5.94
2022-11-17T13:01:31.792Z,5.95
2022-11-17T13:04:19.185Z,5.97
2022-11-17T13:07:01.891Z,5.98
2022-11-17T13:09:33.393Z,5.94
2022-11-17T13:12:04.491Z,5.99
2022-11-17T13:14:51.377Z,5.98
2022-11-17T13:17:21.972Z,6.00
2022-11-17T13:20:00.366Z,5.95
2022-11-17T13:22:28.353Z,6.01
2022-11-17T13:24:57.861Z,5.95
2022-11-17T13:27:31.338Z,5.97
2022-11-17T13:30:28.247Z,5.95
2022-11-17T13:32:57.391Z,5.88
2022-11-17T13:35:26.903Z,5.81
2022-11-17T13:38:04.799Z,5.84
2022-11-17T13:40:35.610Z,5.81
2022-11-17T13:43:05.197Z,5.72
2022-11-17T13:45:33.591Z,5.73
2022-11-17T13:48:01.316Z,5.80
2022-11-17T13:50:31.606Z,5.75
2022-11-17T13:53:16.447Z,5.70
2022-11-17T13:55:47.712Z,5.66
2022-11-17T13:58:49.049Z,5.64
2022-11-17T14:01:23.932Z,5.65
2022-11-17T14:03:52.458Z,5.65
2022-11-17T14:06:20.133Z,5.48
2022-11-17T14:09:04.499Z,5.46
2022-11-17T14:11:33.983Z,5.53
2022-11-17T14:14:01.703Z,5.45
2022-11-17T14:16:38.804Z,5.37
2022-11-17T14:19:31.820Z,5.29
2022-11-17T14:22:08.545Z,5.22
2022-11-17T14:24:37.148Z,5.18
2022-11-17T14:27:36.837Z,5.10
2022-11-17T14:30:05.363Z,5.11
2022-11-17T14:32:34.984Z,5.05
2022-11-17T14:35:05.057Z,5.14
2022-11-17T14:37:32.855Z,5.09
2022-11-17T14:40:00.872Z,5.09
2022-11-17T14:42:34.589Z,4.99
2022-11-17T14:45:04.312Z,4.96
2022-11-17T14:47:36.163Z,4.91
2022-11-17T14:50:04.086Z,4.99
2022-11-17T14:52:31.794Z,4.94
2022-11-17T14:55:00.700Z,4.84
2022-11-17T14:57:28.229Z,4.87
2022-11-17T14:59:55.759Z,4.81
2022-11-17T15:02:26.675Z,4.72
2022-11-17T15:04:55.054Z,4.70
2022-11-17T15:07:23.102Z,4.62
2022-11-17T15:09:51.257Z,4.66
2022-11-17T15:12:19.015Z,4.65
2022-11-17T15:14:48.131Z,4.56
2022-11-17T15:17:16.179Z,4.49
2022-11-17T15:19:45.353Z,4.47
2022-11-17T15:22:12.884Z,4.47
2022-11-17T15:24:40.373Z,4.48
2022-11-17T15:27:08.722Z,4.46
2022-11-17T15:29:37.064Z,4.49
2022-11-17T15:32:05.121Z,4.39
2022-11-17T15:34:37.859Z,4.34
2022-11-17T15:37:05.635Z,4.28
2022-11-17T15:39:33.362Z,4.24
2022-11-17T15:42:00.876Z,4.36
2022-11-17T15:44:29.410Z,4.40
2022-11-17T15:46:57.018Z,4.37
2022-11-17T15:49:24.559Z,4.27
2022-11-17T15:51:52.134Z,4.30
2022-11-17T15:54:21.142Z,4.27
2022-11-17T15:56:49.407Z,4.28
2022-11-17T15:59:17.124Z,4.23
2022-11-17T16:01:45.040Z,4.14
2022-11-17T16:04:15.688Z,4.01
2022-11-17T16:06:45.682Z,4.00
2022-11-17T16:09:14.982Z,4.05
2022-11-17T16:11:44.211Z,4.11
2022-11-17T16:14:12.357Z,4.17
2022-11-17T16:16:40.084Z,4.28
2022-11-17T16:19:07.873Z,4.29
2022-11-17T16:21:35.410Z,4.30
2022-11-17T16:24:03.471Z,4.43
2022-11-17T16:26:32.089Z,4.41
2022-11-17T16:29:02.268Z,4.30
2022-11-17T16:31:35.307Z,4.22
2022-11-17T16:34:13.298Z,4.30
2022-11-17T16:36:43.993Z,4.23
2022-11-17T16:39:17.526Z,4.32
2022-11-17T16:41:46.001Z,4.27
2022-11-17T16:44:15.948Z,4.20
2022-11-17T16:46:45.931Z,4.17
2022-11-17T16:49:15.747Z,4.17
2022-11-17T16:51:51.753Z,4.18
2022-11-17T16:54:20.574Z,4.20
2022-11-17T16:56:48.858Z,4.18
2022-11-17T16:59:17.110Z,4.26
2022-11-17T17:01:45.566Z,4.21
2022-11-17T17:04:13.374Z,4.22
2022-11-17T17:06:44.085Z,4.11
2022-11-17T17:09:14.137Z,4.04
2022-11-17T17:11:44.788Z,4.01
2022-11-17T17:14:14.343Z,4.05
2022-11-17T17:16:42.575Z,4.07
2022-11-17T17:19:12.863Z,3.95
2022-11-17T17:21:41.453Z,4.03
2022-11-17T17:24:10.366Z,4.06
2022-11-17T17:26:39.831Z,3.94
2022-11-17T17:29:08.080Z,3.93
2022-11-17T17:31:40.939Z,3.81
2022-11-17T17:34:10.396Z,3.74
2022-11-17T17:36:38.682Z,3.75
2022-11-17T17:39:07.095Z,3.82
2022-11-17T17:41:39.560Z,3.84
2022-11-17T17:44:08.699Z,3.84
2022-11-17T17:46:38.704Z,3.80
2022-11-17T17:49:06.824Z,3.75
2022-11-17T17:51:43.206Z,3.80
2022-11-17T17:54:24.000Z,3.69
2022-11-17T17:56:51.606Z,3.58
2022-11-17T17:59:20.446Z,3.59
2022-11-17T18:01:49.691Z,3.57
2022-11-17T18:04:17.451Z,3.56
2022-11-17T18:06:48.378Z,3.56
2022-11-17T18:09:19.822Z,3.52
2022-11-17T18:11:50.540Z,3.55
2022-11-17T18:14:24.366Z,3.43
2022-11-17T18:16:53.662Z,3.43
2022-11-17T18:19:22.189Z,3.49
2022-11-17T18:21:49.943Z,3.45
2022-11-17T18:24:17.754Z,3.41
2022-11-17T18:26:45.306Z,3.33
2022-11-17T18:29:18.549Z,3.39
2022-11-17T18:31:47.457Z,3.29
2022-11-17T18:34:21.821Z,3.29
2022-11-17T18:36:51.503Z,3.20
2022-11-17T18:39:19.624Z,3.37
2022-11-17T18:41:47.942Z,3.33
2022-11-17T18:44:18.521Z,3.25
2022-11-17T18:46:46.675Z,3.28
2022-11-17T18:49:15.345Z,3.33
2022-11-17T18:51:43.094Z,3.36
2022-11-17T18:54:11.296Z,3.22
2022-11-17T18:56:39.923Z,3.15
2022-11-17T18:59:11.848Z,3.16
2022-11-17T19:01:41.386Z,3.19
2022-11-17T19:04:11.949Z,3.06
2022-11-17T19:06:39.686Z,3.08
2022-11-17T19:09:08.363Z,3.04
2022-11-17T19:11:36.637Z,3.04
2022-11-17T19:14:05.503Z,3.07
2022-11-17T19:16:42.512Z,2.98
2022-11-17T19:19:13.333Z,3.04
2022-11-17T19:21:41.173Z,2.87
2022-11-17T19:24:09.051Z,2.86
2022-11-17T19:26:36.957Z,2.82
2022-11-17T19:29:15.572Z,2.79
2022-11-17T19:31:45.591Z,2.74
2022-11-17T19:34:14.202Z,2.63
2022-11-17T19:36:42.471Z,2.59
2022-11-17T19:39:12.111Z,2.61
2022-11-17T19:41:39.994Z,2.67
2022-11-17T19:44:09.394Z,2.71
2022-11-17T19:46:39.004Z,2.63
2022-11-17T19:49:07.823Z,2.52
2022-11-17T19:51:37.034Z,2.54
2022-11-17T19:54:06.233Z,2.43
2022-11-17T19:56:33.916Z,2.33
2022-11-17T19:59:01.502Z,2.41
2022-11-17T20:01:30.519Z,2.26
2022-11-17T20:04:01.569Z,2.25
2022-11-17T20:06:34.791Z,2.29
2022-11-17T20:09:10.048Z,2.28
2022-11-17T20:11:38.752Z,2.35
2022-11-17T20:14:09.543Z,2.31
2022-11-17T20:16:38.881Z,2.29
2022-11-17T20:19:09.326Z,2.23
2022-11-17T20:21:36.976Z,2.25
2022-11-17T20:24:04.649Z,2.27
2022-11-17T20:26:35.457Z,2.37
2022-11-17T20:29:03.007Z,2.36
2022-11-17T20:31:33.633Z,2.25
2022-11-17T20:34:03.728Z,2.25
2022-11-17T20:36:33.022Z,2.17
2022-11-17T20:39:02.992Z,2.15
2022-11-17T20:41:31.771Z,2.05
2022-11-17T20:44:00.733Z,2.06
2022-11-17T20:46:32.378Z,2.13
2022-11-17T20:49:00.111Z,2.09
2022-11-17T20:51:27.787Z,2.09
2022-11-17T20:53:55.445Z,2.12
2022-11-17T20:56:23.143Z,1.97
2022-11-17T20:58:51.030Z,1.99
2022-11-17T21:01:21.279Z,1.86
2022-11-17T21:03:49.399Z,1.72
2022-11-17T21:06:17.937Z,1.66
2022-11-17T21:08:46.692Z,1.60
2022-11-17T21:11:35.848Z,1.58
2022-11-17T21:14:06.274Z,1.55
2022-11-17T21:16:34.681Z,1.45
2022-11-17T21:19:02.821Z,1.46
2022-11-17T21:21:30.443Z,1.56
2022-11-17T21:23:58.333Z,1.56
2022-11-17T21:26:27.823Z,1.50
2022-11-17T21:28:59.315Z,1.44
2022-11-17T21:31:31.942Z,1.36
2022-11-17T21:34:02.503Z,1.27
2022-11-17T21:36:31.665Z,1.33
2022-11-17T21:39:00.050Z,1.35
2022-11-17T21:41:31.977Z,1.30
2022-11-17T21:44:02.092Z,1.33
2022-11-17T21:46:32.884Z,1.26
2022-11-17T21:49:01.238Z,1.41
2022-11-17T21:51:34.326Z,1.40
2022-11-17T21:54:05.439Z,1.45
2022-11-17T21:56:34.298Z,1.39
2022-11-17T21:59:12.856Z,1.29
2022-11-17T22:01:41.281Z,1.20
2022-11-17T22:04:12.053Z,1.23
2022-11-17T22:06:39.674Z,1.32
2022-11-17T22:09:07.840Z,1.35
2022-11-17T22:11:35.901Z,1.24
2022-11-17T22:14:15.915Z,1.22
2022-11-17T22:16:52.383Z,1.07
2022-11-17T22:19:22.298Z,1.06
2022-11-17T22:21:52.159Z,1.13
2022-11-17T22:24:20.441Z,1.07
2022-11-17T22:26:48.356Z,1.08
2022-11-17T22:29:21.881Z,1.04
2022-11-17T22:31:50.202Z,0.87
2022-11-17T22:34:18.802Z,0.96
2022-11-17T22:36:46.623Z,0.87
2022-11-17T22:39:14.350Z,0.94
2022-11-17T22:41:46.108Z,0.96
2022-11-17T22:44:15.721Z,0.97
2022-11-17T22:46:43.420Z,0.94
2022-11-17T22:49:12.384Z,1.02
2022-11-17T22:51:58.446Z,0.90
2022-11-17T22:54:25.979Z,0.80
2022-11-17T22:56:53.567Z,0.81
2022-11-17T23:00:25.824Z,0.81
2022-11-17T23:02:53.676Z,0.87
2022-11-17T23:05:21.277Z,0.90
2022-11-17T23:07:48.970Z,0.83
2022-11-17T23:10:17.172Z,0.80
2022-11-17T23:12:44.948Z,0.69
2022-11-17T23:15:12.427Z,0.75
2022-11-17T23:17:40.277Z,0.69
2022-11-17T23:20:09.408Z,0.62
2022-11-17T23:22:37.404Z,0.70
2022-11-17T23:25:05.251Z,0.71
2022-11-17T23:27:32.865Z,0.70
2022-11-17T23:30:00.339Z,0.79
2022-11-17T23:32:27.928Z,0.75
2022-11-17T23:34:56.327Z,0.71
2022-11-17T23:37:24.015Z,0.71
2022-11-17T23:39:52.114Z,0.69
2022-11-17T23:42:19.705Z,0.51
2022-11-17T23:44:47.214Z,0.64
2022-11-17T23:47:14.802Z,0.62
2022-11-17T23:49:42.326Z,0.53
2022-11-17T23:52:10.009Z,0.54
2022-11-17T23:54:37.523Z,0.48
2022-11-17T23:57:05.062Z,0.42
2022-11-17T23:59:33.300Z,0.50
